sensor_id;sensor_type;location;lat;lon;timestamp;P1;durP1;ratioP1;P2;durP2;ratioP2
81330;SDS011;70793;53.076;8.822;2023-10-09T00:01:00;0.88;;;0.80;;
81330;SDS011;70793;53.076;8.822;2023-10-09T00:03:29;1.00;;;0.85;;
81330;SDS011;70793;53.076;8.822;2023-10-09T00:05:54;1.08;;;0.98;;
81330;SDS011;70793;53.076;8.822;2023-10-09T00:08:20;0.90;;;0.90;;
81330;SDS011;70793;53.076;8.822;2023-10-09T00:10:55;1.58;;;0.85;;
81330;SDS011;70793;53.076;8.822;2023-10-09T00:13:25;1.60;;;1.13;;
81330;SDS011;70793;53.076;8.822;2023-10-09T00:15:58;0.75;;;0.60;;
81330;SDS011;70793;53.076;8.822;2023-10-09T00:18:39;0.98;;;0.82;;
81330;SDS011;70793;53.076;8.822;2023-10-09T00:21:13;2.17;;;1.00;;
81330;SDS011;70793;53.076;8.822;2023-10-09T00:23:40;0.90;;;0.70;;
81330;SDS011;70793;53.076;8.822;2023-10-09T00:26:09;0.65;;;0.65;;
81330;SDS011;70793;53.076;8.822;2023-10-09T00:28:41;1.25;;;0.63;;
81330;SDS011;70793;53.076;8.822;2023-10-09T00:31:11;1.20;;;0.73;;
81330;SDS011;70793;53.076;8.822;2023-10-09T00:33:41;1.20;;;0.70;;
81330;SDS011;70793;53.076;8.822;2023-10-09T00:36:09;0.70;;;0.70;;
81330;SDS011;70793;53.076;8.822;2023-10-09T00:38:35;1.02;;;0.60;;
81330;SDS011;70793;53.076;8.822;2023-10-09T00:41:01;1.75;;;0.73;;
81330;SDS011;70793;53.076;8.822;2023-10-09T00:43:32;0.45;;;0.45;;
81330;SDS011;70793;53.076;8.822;2023-10-09T00:46:00;1.60;;;0.77;;
81330;SDS011;70793;53.076;8.822;2023-10-09T00:48:49;1.02;;;0.65;;
81330;SDS011;70793;53.076;8.822;2023-10-09T00:51:16;0.80;;;0.52;;
81330;SDS011;70793;53.076;8.822;2023-10-09T00:53:46;1.00;;;0.90;;
81330;SDS011;70793;53.076;8.822;2023-10-09T00:56:16;1.08;;;0.70;;
81330;SDS011;70793;53.076;8.822;2023-10-09T00:58:54;0.60;;;0.60;;
81330;SDS011;70793;53.076;8.822;2023-10-09T01:01:24;0.90;;;0.80;;
81330;SDS011;70793;53.076;8.822;2023-10-09T01:04:00;0.75;;;0.75;;
81330;SDS011;70793;53.076;8.822;2023-10-09T01:06:38;1.02;;;0.60;;
81330;SDS011;70793;53.076;8.822;2023-10-09T01:09:12;0.60;;;0.43;;
81330;SDS011;70793;53.076;8.822;2023-10-09T01:11:39;1.13;;;0.60;;
81330;SDS011;70793;53.076;8.822;2023-10-09T01:14:14;0.80;;;0.63;;
81330;SDS011;70793;53.076;8.822;2023-10-09T01:16:40;1.48;;;0.80;;
81330;SDS011;70793;53.076;8.822;2023-10-09T01:19:09;0.77;;;0.70;;
81330;SDS011;70793;53.076;8.822;2023-10-09T01:21:52;0.77;;;0.73;;
81330;SDS011;70793;53.076;8.822;2023-10-09T01:24:18;2.30;;;0.60;;
81330;SDS011;70793;53.076;8.822;2023-10-09T01:26:47;0.93;;;0.73;;
81330;SDS011;70793;53.076;8.822;2023-10-09T01:29:19;0.70;;;0.70;;
81330;SDS011;70793;53.076;8.822;2023-10-09T01:31:54;0.82;;;0.80;;
81330;SDS011;70793;53.076;8.822;2023-10-09T01:34:30;1.20;;;0.70;;
81330;SDS011;70793;53.076;8.822;2023-10-09T01:37:07;0.85;;;0.82;;
81330;SDS011;70793;53.076;8.822;2023-10-09T01:39:50;0.90;;;0.70;;
81330;SDS011;70793;53.076;8.822;2023-10-09T01:42:45;1.88;;;0.93;;
81330;SDS011;70793;53.076;8.822;2023-10-09T01:45:11;0.63;;;0.63;;
81330;SDS011;70793;53.076;8.822;2023-10-09T01:47:37;1.27;;;0.52;;
81330;SDS011;70793;53.076;8.822;2023-10-09T01:50:05;0.60;;;0.60;;
81330;SDS011;70793;53.076;8.822;2023-10-09T01:52:36;0.73;;;0.68;;
81330;SDS011;70793;53.076;8.822;2023-10-09T01:55:03;1.75;;;0.70;;
81330;SDS011;70793;53.076;8.822;2023-10-09T01:57:34;1.15;;;0.95;;
81330;SDS011;70793;53.076;8.822;2023-10-09T02:00:01;1.23;;;0.73;;
81330;SDS011;70793;53.076;8.822;2023-10-09T02:02:28;1.88;;;0.90;;
81330;SDS011;70793;53.076;8.822;2023-10-09T02:07:36;0.80;;;0.52;;
81330;SDS011;70793;53.076;8.822;2023-10-09T02:10:31;0.88;;;0.68;;
81330;SDS011;70793;53.076;8.822;2023-10-09T02:12:58;0.47;;;0.47;;
81330;SDS011;70793;53.076;8.822;2023-10-09T02:15:28;1.00;;;0.90;;
81330;SDS011;70793;53.076;8.822;2023-10-09T02:18:06;0.75;;;0.75;;
81330;SDS011;70793;53.076;8.822;2023-10-09T02:23:39;1.30;;;0.57;;
81330;SDS011;70793;53.076;8.822;2023-10-09T02:26:11;1.25;;;0.52;;
81330;SDS011;70793;53.076;8.822;2023-10-09T02:28:56;0.95;;;0.52;;
81330;SDS011;70793;53.076;8.822;2023-10-09T02:31:24;0.95;;;0.80;;
81330;SDS011;70793;53.076;8.822;2023-10-09T02:33:54;0.63;;;0.47;;
81330;SDS011;70793;53.076;8.822;2023-10-09T02:36:23;1.02;;;0.70;;
81330;SDS011;70793;53.076;8.822;2023-10-09T02:38:49;1.35;;;0.60;;
81330;SDS011;70793;53.076;8.822;2023-10-09T02:41:18;0.65;;;0.65;;
81330;SDS011;70793;53.076;8.822;2023-10-09T02:43:47;1.15;;;0.85;;
81330;SDS011;70793;53.076;8.822;2023-10-09T02:46:16;1.30;;;0.60;;
81330;SDS011;70793;53.076;8.822;2023-10-09T02:48:55;1.08;;;0.77;;
81330;SDS011;70793;53.076;8.822;2023-10-09T02:51:27;1.50;;;0.55;;
81330;SDS011;70793;53.076;8.822;2023-10-09T02:53:53;0.88;;;0.60;;
81330;SDS011;70793;53.076;8.822;2023-10-09T02:56:23;1.13;;;0.85;;
81330;SDS011;70793;53.076;8.822;2023-10-09T02:58:52;0.88;;;0.88;;
81330;SDS011;70793;53.076;8.822;2023-10-09T03:01:18;2.42;;;0.70;;
81330;SDS011;70793;53.076;8.822;2023-10-09T03:03:44;1.05;;;0.95;;
81330;SDS011;70793;53.076;8.822;2023-10-09T03:06:14;1.20;;;0.52;;
81330;SDS011;70793;53.076;8.822;2023-10-09T03:08:44;0.68;;;0.50;;
81330;SDS011;70793;53.076;8.822;2023-10-09T03:11:13;1.17;;;0.68;;
81330;SDS011;70793;53.076;8.822;2023-10-09T03:13:42;1.08;;;0.73;;
81330;SDS011;70793;53.076;8.822;2023-10-09T03:16:12;1.88;;;0.80;;
81330;SDS011;70793;53.076;8.822;2023-10-09T03:18:50;0.98;;;0.90;;
81330;SDS011;70793;53.076;8.822;2023-10-09T03:21:17;0.95;;;0.90;;
81330;SDS011;70793;53.076;8.822;2023-10-09T03:23:45;0.73;;;0.55;;
81330;SDS011;70793;53.076;8.822;2023-10-09T03:26:15;1.58;;;0.80;;
81330;SDS011;70793;53.076;8.822;2023-10-09T03:28:43;0.77;;;0.70;;
81330;SDS011;70793;53.076;8.822;2023-10-09T03:31:10;1.15;;;0.80;;
81330;SDS011;70793;53.076;8.822;2023-10-09T03:33:36;1.05;;;0.93;;
81330;SDS011;70793;53.076;8.822;2023-10-09T03:36:01;0.73;;;0.73;;
81330;SDS011;70793;53.076;8.822;2023-10-09T03:38:27;1.63;;;0.82;;
81330;SDS011;70793;53.076;8.822;2023-10-09T03:41:00;1.23;;;1.00;;
81330;SDS011;70793;53.076;8.822;2023-10-09T03:43:26;0.82;;;0.70;;
81330;SDS011;70793;53.076;8.822;2023-10-09T03:45:57;1.75;;;0.80;;
81330;SDS011;70793;53.076;8.822;2023-10-09T03:48:24;1.10;;;0.80;;
81330;SDS011;70793;53.076;8.822;2023-10-09T03:50:57;1.50;;;0.90;;
81330;SDS011;70793;53.076;8.822;2023-10-09T03:53:46;1.08;;;0.90;;
81330;SDS011;70793;53.076;8.822;2023-10-09T03:56:12;1.10;;;0.80;;
81330;SDS011;70793;53.076;8.822;2023-10-09T03:58:39;1.13;;;0.93;;
81330;SDS011;70793;53.076;8.822;2023-10-09T04:01:09;1.30;;;0.70;;
81330;SDS011;70793;53.076;8.822;2023-10-09T04:03:42;0.73;;;0.73;;
81330;SDS011;70793;53.076;8.822;2023-10-09T04:06:08;1.23;;;0.98;;
81330;SDS011;70793;53.076;8.822;2023-10-09T04:08:36;0.75;;;0.73;;
81330;SDS011;70793;53.076;8.822;2023-10-09T04:11:05;0.80;;;0.73;;
81330;SDS011;70793;53.076;8.822;2023-10-09T04:13:41;0.75;;;0.75;;
81330;SDS011;70793;53.076;8.822;2023-10-09T04:16:11;1.40;;;0.95;;
81330;SDS011;70793;53.076;8.822;2023-10-09T04:21:22;0.88;;;0.73;;
81330;SDS011;70793;53.076;8.822;2023-10-09T04:23:56;0.90;;;0.73;;
81330;SDS011;70793;53.076;8.822;2023-10-09T04:26:25;1.40;;;0.77;;
81330;SDS011;70793;53.076;8.822;2023-10-09T04:28:51;1.25;;;0.63;;
81330;SDS011;70793;53.076;8.822;2023-10-09T04:31:18;1.10;;;0.70;;
81330;SDS011;70793;53.076;8.822;2023-10-09T04:33:44;1.48;;;0.80;;
81330;SDS011;70793;53.076;8.822;2023-10-09T04:36:19;1.15;;;1.05;;
81330;SDS011;70793;53.076;8.822;2023-10-09T04:38:44;1.20;;;1.08;;
81330;SDS011;70793;53.076;8.822;2023-10-09T04:41:41;1.17;;;1.02;;
81330;SDS011;70793;53.076;8.822;2023-10-09T04:44:06;0.88;;;0.80;;
81330;SDS011;70793;53.076;8.822;2023-10-09T04:46:47;0.95;;;0.85;;
81330;SDS011;70793;53.076;8.822;2023-10-09T04:49:38;1.15;;;0.95;;
81330;SDS011;70793;53.076;8.822;2023-10-09T04:52:14;1.77;;;0.98;;
81330;SDS011;70793;53.076;8.822;2023-10-09T04:54:55;2.30;;;1.20;;
81330;SDS011;70793;53.076;8.822;2023-10-09T04:57:37;1.38;;;1.27;;
81330;SDS011;70793;53.076;8.822;2023-10-09T05:00:07;0.68;;;0.63;;
81330;SDS011;70793;53.076;8.822;2023-10-09T05:02:48;1.77;;;1.20;;
81330;SDS011;70793;53.076;8.822;2023-10-09T05:05:20;1.30;;;1.10;;
81330;SDS011;70793;53.076;8.822;2023-10-09T05:08:04;2.35;;;1.38;;
81330;SDS011;70793;53.076;8.822;2023-10-09T05:10:51;2.60;;;1.15;;
81330;SDS011;70793;53.076;8.822;2023-10-09T05:13:26;3.60;;;1.42;;
81330;SDS011;70793;53.076;8.822;2023-10-09T05:16:11;2.58;;;1.20;;
81330;SDS011;70793;53.076;8.822;2023-10-09T05:18:44;1.55;;;0.88;;
81330;SDS011;70793;53.076;8.822;2023-10-09T05:21:13;1.15;;;0.88;;
81330;SDS011;70793;53.076;8.822;2023-10-09T05:24:02;2.50;;;1.48;;
81330;SDS011;70793;53.076;8.822;2023-10-09T05:26:37;1.50;;;1.30;;
81330;SDS011;70793;53.076;8.822;2023-10-09T05:29:10;2.20;;;2.00;;
81330;SDS011;70793;53.076;8.822;2023-10-09T05:31:49;1.95;;;1.55;;
81330;SDS011;70793;53.076;8.822;2023-10-09T05:34:25;3.20;;;2.08;;
81330;SDS011;70793;53.076;8.822;2023-10-09T05:37:05;2.22;;;1.63;;
81330;SDS011;70793;53.076;8.822;2023-10-09T05:39:48;1.90;;;1.70;;
81330;SDS011;70793;53.076;8.822;2023-10-09T05:42:43;1.67;;;1.27;;
81330;SDS011;70793;53.076;8.822;2023-10-09T05:45:17;2.20;;;1.30;;
81330;SDS011;70793;53.076;8.822;2023-10-09T05:47:50;1.67;;;1.52;;
81330;SDS011;70793;53.076;8.822;2023-10-09T05:52:46;2.53;;;1.70;;
81330;SDS011;70793;53.076;8.822;2023-10-09T05:55:18;2.58;;;1.90;;
81330;SDS011;70793;53.076;8.822;2023-10-09T05:57:47;2.63;;;1.73;;
81330;SDS011;70793;53.076;8.822;2023-10-09T06:00:31;3.08;;;1.95;;
81330;SDS011;70793;53.076;8.822;2023-10-09T06:03:15;3.75;;;2.25;;
81330;SDS011;70793;53.076;8.822;2023-10-09T06:05:43;3.05;;;1.63;;
81330;SDS011;70793;53.076;8.822;2023-10-09T06:10:53;3.15;;;1.77;;
81330;SDS011;70793;53.076;8.822;2023-10-09T06:13:34;3.17;;;1.80;;
81330;SDS011;70793;53.076;8.822;2023-10-09T06:16:03;3.22;;;1.88;;
81330;SDS011;70793;53.076;8.822;2023-10-09T06:18:55;3.75;;;2.55;;
81330;SDS011;70793;53.076;8.822;2023-10-09T06:21:47;4.20;;;2.50;;
81330;SDS011;70793;53.076;8.822;2023-10-09T06:24:31;3.08;;;2.10;;
81330;SDS011;70793;53.076;8.822;2023-10-09T06:27:15;4.72;;;2.55;;
81330;SDS011;70793;53.076;8.822;2023-10-09T06:30:01;5.03;;;2.55;;
81330;SDS011;70793;53.076;8.822;2023-10-09T06:32:44;3.88;;;2.40;;
81330;SDS011;70793;53.076;8.822;2023-10-09T06:37:49;4.07;;;2.00;;
81330;SDS011;70793;53.076;8.822;2023-10-09T06:40:27;4.28;;;2.67;;
81330;SDS011;70793;53.076;8.822;2023-10-09T06:43:04;4.55;;;3.10;;
81330;SDS011;70793;53.076;8.822;2023-10-09T06:45:41;5.25;;;3.38;;
81330;SDS011;70793;53.076;8.822;2023-10-09T06:48:12;4.72;;;3.08;;
81330;SDS011;70793;53.076;8.822;2023-10-09T06:50:57;3.47;;;2.28;;
81330;SDS011;70793;53.076;8.822;2023-10-09T06:53:33;4.20;;;2.75;;
81330;SDS011;70793;53.076;8.822;2023-10-09T06:56:17;4.70;;;3.33;;
81330;SDS011;70793;53.076;8.822;2023-10-09T06:59:04;5.32;;;2.83;;
81330;SDS011;70793;53.076;8.822;2023-10-09T07:01:42;4.22;;;2.92;;
81330;SDS011;70793;53.076;8.822;2023-10-09T07:04:09;4.15;;;2.58;;
81330;SDS011;70793;53.076;8.822;2023-10-09T07:06:50;4.53;;;3.10;;
81330;SDS011;70793;53.076;8.822;2023-10-09T07:09:21;3.72;;;2.58;;
81330;SDS011;70793;53.076;8.822;2023-10-09T07:11:48;4.45;;;3.33;;
81330;SDS011;70793;53.076;8.822;2023-10-09T07:14:15;4.13;;;3.22;;
81330;SDS011;70793;53.076;8.822;2023-10-09T07:17:01;4.00;;;3.10;;
81330;SDS011;70793;53.076;8.822;2023-10-09T07:19:30;4.75;;;2.85;;
81330;SDS011;70793;53.076;8.822;2023-10-09T07:21:59;5.00;;;3.08;;
81330;SDS011;70793;53.076;8.822;2023-10-09T07:24:29;5.47;;;3.47;;
81330;SDS011;70793;53.076;8.822;2023-10-09T07:27:08;5.60;;;3.22;;
81330;SDS011;70793;53.076;8.822;2023-10-09T07:29:39;4.97;;;3.10;;
81330;SDS011;70793;53.076;8.822;2023-10-09T07:32:14;6.00;;;3.58;;
81330;SDS011;70793;53.076;8.822;2023-10-09T07:34:49;3.95;;;3.05;;
81330;SDS011;70793;53.076;8.822;2023-10-09T07:37:25;5.43;;;3.08;;
81330;SDS011;70793;53.076;8.822;2023-10-09T07:40:03;5.85;;;3.58;;
81330;SDS011;70793;53.076;8.822;2023-10-09T07:42:32;4.80;;;3.20;;
81330;SDS011;70793;53.076;8.822;2023-10-09T07:45:10;4.82;;;3.25;;
81330;SDS011;70793;53.076;8.822;2023-10-09T07:47:48;4.82;;;2.90;;
81330;SDS011;70793;53.076;8.822;2023-10-09T07:50:36;5.75;;;3.65;;
81330;SDS011;70793;53.076;8.822;2023-10-09T07:53:06;6.45;;;2.83;;
81330;SDS011;70793;53.076;8.822;2023-10-09T07:55:43;5.45;;;3.40;;
81330;SDS011;70793;53.076;8.822;2023-10-09T07:58:19;5.35;;;3.85;;
81330;SDS011;70793;53.076;8.822;2023-10-09T08:00:53;4.43;;;3.28;;
81330;SDS011;70793;53.076;8.822;2023-10-09T08:03:51;5.82;;;3.72;;
81330;SDS011;70793;53.076;8.822;2023-10-09T08:06:25;4.65;;;3.10;;
81330;SDS011;70793;53.076;8.822;2023-10-09T08:09:04;6.35;;;3.17;;
81330;SDS011;70793;53.076;8.822;2023-10-09T08:11:40;4.57;;;2.50;;
81330;SDS011;70793;53.076;8.822;2023-10-09T08:14:06;5.10;;;3.58;;
81330;SDS011;70793;53.076;8.822;2023-10-09T08:16:56;4.10;;;3.13;;
81330;SDS011;70793;53.076;8.822;2023-10-09T08:19:41;4.60;;;3.20;;
81330;SDS011;70793;53.076;8.822;2023-10-09T08:22:29;4.75;;;3.35;;
81330;SDS011;70793;53.076;8.822;2023-10-09T08:24:55;4.53;;;3.05;;
81330;SDS011;70793;53.076;8.822;2023-10-09T08:27:22;5.47;;;2.85;;
81330;SDS011;70793;53.076;8.822;2023-10-09T08:29:59;4.53;;;2.83;;
81330;SDS011;70793;53.076;8.822;2023-10-09T08:32:45;4.65;;;2.92;;
81330;SDS011;70793;53.076;8.822;2023-10-09T08:35:35;4.78;;;3.20;;
81330;SDS011;70793;53.076;8.822;2023-10-09T08:38:12;4.32;;;2.97;;
81330;SDS011;70793;53.076;8.822;2023-10-09T08:40:39;5.63;;;3.53;;
81330;SDS011;70793;53.076;8.822;2023-10-09T08:45:39;4.00;;;3.00;;
81330;SDS011;70793;53.076;8.822;2023-10-09T08:48:06;4.25;;;2.65;;
81330;SDS011;70793;53.076;8.822;2023-10-09T08:50:33;3.55;;;2.65;;
81330;SDS011;70793;53.076;8.822;2023-10-09T08:53:00;4.97;;;3.22;;
81330;SDS011;70793;53.076;8.822;2023-10-09T08:55:28;4.15;;;2.97;;
81330;SDS011;70793;53.076;8.822;2023-10-09T08:57:54;4.93;;;2.90;;
81330;SDS011;70793;53.076;8.822;2023-10-09T09:00:22;5.05;;;3.33;;
81330;SDS011;70793;53.076;8.822;2023-10-09T09:02:52;4.88;;;3.10;;
81330;SDS011;70793;53.076;8.822;2023-10-09T09:05:21;5.10;;;3.03;;
81330;SDS011;70793;53.076;8.822;2023-10-09T09:07:50;3.83;;;2.97;;
81330;SDS011;70793;53.076;8.822;2023-10-09T09:13:04;4.95;;;2.45;;
81330;SDS011;70793;53.076;8.822;2023-10-09T09:15:30;3.67;;;3.10;;
81330;SDS011;70793;53.076;8.822;2023-10-09T09:18:03;3.63;;;2.60;;
81330;SDS011;70793;53.076;8.822;2023-10-09T09:20:34;4.00;;;2.85;;
81330;SDS011;70793;53.076;8.822;2023-10-09T09:23:02;3.72;;;2.75;;
81330;SDS011;70793;53.076;8.822;2023-10-09T09:25:41;4.88;;;3.15;;
81330;SDS011;70793;53.076;8.822;2023-10-09T09:28:14;3.60;;;2.47;;
81330;SDS011;70793;53.076;8.822;2023-10-09T09:30:46;5.85;;;3.47;;
81330;SDS011;70793;53.076;8.822;2023-10-09T09:33:23;3.65;;;2.85;;
81330;SDS011;70793;53.076;8.822;2023-10-09T09:38:30;3.10;;;2.60;;
81330;SDS011;70793;53.076;8.822;2023-10-09T09:41:19;3.17;;;2.30;;
81330;SDS011;70793;53.076;8.822;2023-10-09T09:43:55;5.55;;;3.17;;
81330;SDS011;70793;53.076;8.822;2023-10-09T09:46:26;4.70;;;2.55;;
81330;SDS011;70793;53.076;8.822;2023-10-09T09:49:03;4.68;;;3.20;;
81330;SDS011;70793;53.076;8.822;2023-10-09T09:51:49;4.07;;;2.72;;
81330;SDS011;70793;53.076;8.822;2023-10-09T09:54:15;3.67;;;2.75;;
81330;SDS011;70793;53.076;8.822;2023-10-09T09:56:45;3.42;;;3.13;;
81330;SDS011;70793;53.076;8.822;2023-10-09T09:59:20;4.85;;;2.42;;
81330;SDS011;70793;53.076;8.822;2023-10-09T10:01:52;3.25;;;2.72;;
81330;SDS011;70793;53.076;8.822;2023-10-09T10:04:26;4.75;;;2.88;;
81330;SDS011;70793;53.076;8.822;2023-10-09T10:06:53;4.18;;;2.80;;
81330;SDS011;70793;53.076;8.822;2023-10-09T10:09:39;3.58;;;2.47;;
81330;SDS011;70793;53.076;8.822;2023-10-09T10:12:09;3.33;;;2.08;;
81330;SDS011;70793;53.076;8.822;2023-10-09T10:20:24;4.18;;;3.33;;
81330;SDS011;70793;53.076;8.822;2023-10-09T10:22:50;3.65;;;2.72;;
81330;SDS011;70793;53.076;8.822;2023-10-09T10:28:15;3.70;;;2.28;;
81330;SDS011;70793;53.076;8.822;2023-10-09T10:30:54;4.40;;;2.40;;
81330;SDS011;70793;53.076;8.822;2023-10-09T10:33:20;3.05;;;2.55;;
81330;SDS011;70793;53.076;8.822;2023-10-09T10:35:48;3.63;;;2.70;;
81330;SDS011;70793;53.076;8.822;2023-10-09T10:41:10;3.28;;;2.30;;
81330;SDS011;70793;53.076;8.822;2023-10-09T10:43:42;3.38;;;2.13;;
81330;SDS011;70793;53.076;8.822;2023-10-09T10:46:17;3.40;;;2.63;;
81330;SDS011;70793;53.076;8.822;2023-10-09T10:49:00;2.63;;;2.15;;
81330;SDS011;70793;53.076;8.822;2023-10-09T10:51:46;3.17;;;2.20;;
81330;SDS011;70793;53.076;8.822;2023-10-09T10:54:22;3.38;;;2.42;;
81330;SDS011;70793;53.076;8.822;2023-10-09T10:56:54;4.32;;;2.15;;
81330;SDS011;70793;53.076;8.822;2023-10-09T10:59:22;3.13;;;1.83;;
81330;SDS011;70793;53.076;8.822;2023-10-09T11:01:50;4.85;;;2.30;;
81330;SDS011;70793;53.076;8.822;2023-10-09T11:04:39;2.45;;;1.85;;
81330;SDS011;70793;53.076;8.822;2023-10-09T11:07:07;3.40;;;2.05;;
81330;SDS011;70793;53.076;8.822;2023-10-09T11:09:51;2.75;;;1.70;;
81330;SDS011;70793;53.076;8.822;2023-10-09T11:12:30;3.17;;;1.92;;
81330;SDS011;70793;53.076;8.822;2023-10-09T11:15:32;3.47;;;1.67;;
81330;SDS011;70793;53.076;8.822;2023-10-09T11:18:22;2.35;;;1.85;;
81330;SDS011;70793;53.076;8.822;2023-10-09T11:20:52;2.75;;;1.75;;
81330;SDS011;70793;53.076;8.822;2023-10-09T11:23:45;3.67;;;2.50;;
81330;SDS011;70793;53.076;8.822;2023-10-09T11:29:19;2.08;;;1.70;;
81330;SDS011;70793;53.076;8.822;2023-10-09T11:31:57;2.55;;;1.90;;
81330;SDS011;70793;53.076;8.822;2023-10-09T11:34:30;1.90;;;1.30;;
81330;SDS011;70793;53.076;8.822;2023-10-09T11:37:18;1.73;;;1.52;;
81330;SDS011;70793;53.076;8.822;2023-10-09T11:39:55;1.73;;;1.60;;
81330;SDS011;70793;53.076;8.822;2023-10-09T11:42:21;3.13;;;2.10;;
81330;SDS011;70793;53.076;8.822;2023-10-09T11:45:23;2.13;;;1.88;;
81330;SDS011;70793;53.076;8.822;2023-10-09T11:47:53;2.35;;;1.83;;
81330;SDS011;70793;53.076;8.822;2023-10-09T11:50:43;2.08;;;1.67;;
81330;SDS011;70793;53.076;8.822;2023-10-09T11:53:14;4.95;;;2.17;;
81330;SDS011;70793;53.076;8.822;2023-10-09T11:55:48;2.88;;;1.35;;
81330;SDS011;70793;53.076;8.822;2023-10-09T11:58:15;3.42;;;1.90;;
81330;SDS011;70793;53.076;8.822;2023-10-09T12:00:48;3.70;;;1.73;;
81330;SDS011;70793;53.076;8.822;2023-10-09T12:03:22;2.00;;;1.48;;
81330;SDS011;70793;53.076;8.822;2023-10-09T12:05:53;2.45;;;1.95;;
81330;SDS011;70793;53.076;8.822;2023-10-09T12:08:21;1.85;;;1.23;;
81330;SDS011;70793;53.076;8.822;2023-10-09T12:10:53;1.83;;;1.08;;
81330;SDS011;70793;53.076;8.822;2023-10-09T12:13:20;1.55;;;1.10;;
81330;SDS011;70793;53.076;8.822;2023-10-09T12:15:50;1.67;;;1.00;;
81330;SDS011;70793;53.076;8.822;2023-10-09T12:18:17;2.03;;;1.30;;
81330;SDS011;70793;53.076;8.822;2023-10-09T12:20:44;1.45;;;0.85;;
81330;SDS011;70793;53.076;8.822;2023-10-09T12:23:27;3.63;;;1.30;;
81330;SDS011;70793;53.076;8.822;2023-10-09T12:25:53;2.40;;;1.30;;
81330;SDS011;70793;53.076;8.822;2023-10-09T12:28:21;1.45;;;0.93;;
81330;SDS011;70793;53.076;8.822;2023-10-09T12:30:48;1.30;;;0.77;;
81330;SDS011;70793;53.076;8.822;2023-10-09T12:33:17;2.75;;;1.38;;
81330;SDS011;70793;53.076;8.822;2023-10-09T12:35:44;2.28;;;0.95;;
81330;SDS011;70793;53.076;8.822;2023-10-09T12:38:10;1.88;;;0.93;;
81330;SDS011;70793;53.076;8.822;2023-10-09T12:40:39;1.02;;;0.77;;
81330;SDS011;70793;53.076;8.822;2023-10-09T12:43:06;1.55;;;1.00;;
81330;SDS011;70793;53.076;8.822;2023-10-09T12:45:40;0.70;;;0.47;;
81330;SDS011;70793;53.076;8.822;2023-10-09T12:48:06;3.00;;;0.80;;
81330;SDS011;70793;53.076;8.822;2023-10-09T12:50:35;1.77;;;0.80;;
81330;SDS011;70793;53.076;8.822;2023-10-09T12:53:06;1.90;;;0.95;;
81330;SDS011;70793;53.076;8.822;2023-10-09T12:55:40;2.13;;;1.10;;
81330;SDS011;70793;53.076;8.822;2023-10-09T12:58:09;1.85;;;1.17;;
81330;SDS011;70793;53.076;8.822;2023-10-09T13:00:39;2.20;;;0.98;;
81330;SDS011;70793;53.076;8.822;2023-10-09T13:03:15;1.30;;;0.90;;
81330;SDS011;70793;53.076;8.822;2023-10-09T13:05:52;1.67;;;0.90;;
81330;SDS011;70793;53.076;8.822;2023-10-09T13:08:25;1.05;;;0.95;;
81330;SDS011;70793;53.076;8.822;2023-10-09T13:11:06;1.70;;;0.90;;
81330;SDS011;70793;53.076;8.822;2023-10-09T13:13:39;1.33;;;0.80;;
81330;SDS011;70793;53.076;8.822;2023-10-09T13:16:07;1.48;;;0.80;;
81330;SDS011;70793;53.076;8.822;2023-10-09T13:18:36;1.38;;;0.73;;
81330;SDS011;70793;53.076;8.822;2023-10-09T13:21:02;0.95;;;0.70;;
81330;SDS011;70793;53.076;8.822;2023-10-09T13:23:29;1.23;;;0.90;;
81330;SDS011;70793;53.076;8.822;2023-10-09T13:26:05;1.80;;;1.27;;
81330;SDS011;70793;53.076;8.822;2023-10-09T13:28:43;0.80;;;0.80;;
81330;SDS011;70793;53.076;8.822;2023-10-09T13:31:13;1.42;;;0.77;;
81330;SDS011;70793;53.076;8.822;2023-10-09T13:33:39;2.47;;;0.77;;
81330;SDS011;70793;53.076;8.822;2023-10-09T13:36:05;1.23;;;0.77;;
81330;SDS011;70793;53.076;8.822;2023-10-09T13:38:41;2.05;;;1.15;;
81330;SDS011;70793;53.076;8.822;2023-10-09T13:41:10;1.80;;;0.82;;
81330;SDS011;70793;53.076;8.822;2023-10-09T13:43:44;1.50;;;1.23;;
81330;SDS011;70793;53.076;8.822;2023-10-09T13:46:13;1.23;;;0.93;;
81330;SDS011;70793;53.076;8.822;2023-10-09T13:48:42;2.40;;;0.77;;
81330;SDS011;70793;53.076;8.822;2023-10-09T13:51:10;0.75;;;0.52;;
81330;SDS011;70793;53.076;8.822;2023-10-09T13:53:42;2.67;;;1.00;;
81330;SDS011;70793;53.076;8.822;2023-10-09T13:56:14;2.17;;;0.68;;
81330;SDS011;70793;53.076;8.822;2023-10-09T13:58:43;1.60;;;0.85;;
81330;SDS011;70793;53.076;8.822;2023-10-09T14:01:09;1.08;;;0.70;;
81330;SDS011;70793;53.076;8.822;2023-10-09T14:03:35;2.70;;;0.73;;
81330;SDS011;70793;53.076;8.822;2023-10-09T14:06:03;3.00;;;0.88;;
81330;SDS011;70793;53.076;8.822;2023-10-09T14:08:37;1.30;;;0.75;;
81330;SDS011;70793;53.076;8.822;2023-10-09T14:11:09;0.63;;;0.50;;
81330;SDS011;70793;53.076;8.822;2023-10-09T14:13:41;1.13;;;0.60;;
81330;SDS011;70793;53.076;8.822;2023-10-09T14:16:07;1.52;;;0.60;;
81330;SDS011;70793;53.076;8.822;2023-10-09T14:18:49;0.85;;;0.70;;
81330;SDS011;70793;53.076;8.822;2023-10-09T14:21:19;0.90;;;0.65;;
81330;SDS011;70793;53.076;8.822;2023-10-09T14:23:45;1.90;;;0.70;;
81330;SDS011;70793;53.076;8.822;2023-10-09T14:26:13;1.20;;;0.82;;
81330;SDS011;70793;53.076;8.822;2023-10-09T14:28:39;1.38;;;0.70;;
81330;SDS011;70793;53.076;8.822;2023-10-09T14:31:07;0.70;;;0.60;;
81330;SDS011;70793;53.076;8.822;2023-10-09T14:33:37;1.42;;;0.73;;
81330;SDS011;70793;53.076;8.822;2023-10-09T14:36:10;1.00;;;0.70;;
81330;SDS011;70793;53.076;8.822;2023-10-09T14:38:41;0.90;;;0.70;;
81330;SDS011;70793;53.076;8.822;2023-10-09T14:41:07;1.20;;;0.70;;
81330;SDS011;70793;53.076;8.822;2023-10-09T14:43:36;0.93;;;0.82;;
81330;SDS011;70793;53.076;8.822;2023-10-09T14:46:06;0.88;;;0.85;;
81330;SDS011;70793;53.076;8.822;2023-10-09T14:48:36;1.02;;;0.80;;
81330;SDS011;70793;53.076;8.822;2023-10-09T14:51:03;1.38;;;0.88;;
81330;SDS011;70793;53.076;8.822;2023-10-09T14:53:32;1.15;;;0.65;;
81330;SDS011;70793;53.076;8.822;2023-10-09T14:55:59;1.38;;;0.82;;
81330;SDS011;70793;53.076;8.822;2023-10-09T14:58:29;1.40;;;1.10;;
81330;SDS011;70793;53.076;8.822;2023-10-09T15:00:58;1.58;;;0.93;;
81330;SDS011;70793;53.076;8.822;2023-10-09T15:03:35;1.10;;;0.88;;
81330;SDS011;70793;53.076;8.822;2023-10-09T15:06:02;2.00;;;1.00;;
81330;SDS011;70793;53.076;8.822;2023-10-09T15:08:28;1.15;;;0.73;;
81330;SDS011;70793;53.076;8.822;2023-10-09T15:10:55;1.95;;;1.15;;
81330;SDS011;70793;53.076;8.822;2023-10-09T15:13:24;0.80;;;0.80;;
81330;SDS011;70793;53.076;8.822;2023-10-09T15:15:58;1.17;;;0.60;;
81330;SDS011;70793;53.076;8.822;2023-10-09T15:18:27;0.73;;;0.50;;
81330;SDS011;70793;53.076;8.822;2023-10-09T15:20:54;0.90;;;0.60;;
81330;SDS011;70793;53.076;8.822;2023-10-09T15:23:19;1.10;;;0.75;;
81330;SDS011;70793;53.076;8.822;2023-10-09T15:25:45;1.58;;;0.77;;
81330;SDS011;70793;53.076;8.822;2023-10-09T15:28:15;2.38;;;0.80;;
81330;SDS011;70793;53.076;8.822;2023-10-09T15:30:41;0.70;;;0.60;;
81330;SDS011;70793;53.076;8.822;2023-10-09T15:33:07;1.23;;;0.55;;
81330;SDS011;70793;53.076;8.822;2023-10-09T15:35:34;0.88;;;0.50;;
81330;SDS011;70793;53.076;8.822;2023-10-09T15:38:02;2.05;;;0.73;;
81330;SDS011;70793;53.076;8.822;2023-10-09T15:40:29;2.85;;;1.02;;
81330;SDS011;70793;53.076;8.822;2023-10-09T15:43:01;0.80;;;0.60;;
81330;SDS011;70793;53.076;8.822;2023-10-09T15:45:29;1.02;;;0.70;;
81330;SDS011;70793;53.076;8.822;2023-10-09T15:47:56;0.95;;;0.60;;
81330;SDS011;70793;53.076;8.822;2023-10-09T15:50:24;0.88;;;0.30;;
81330;SDS011;70793;53.076;8.822;2023-10-09T15:52:53;0.80;;;0.52;;
81330;SDS011;70793;53.076;8.822;2023-10-09T15:55:23;1.23;;;0.40;;
81330;SDS011;70793;53.076;8.822;2023-10-09T15:57:52;0.52;;;0.50;;
81330;SDS011;70793;53.076;8.822;2023-10-09T16:00:22;2.17;;;0.73;;